createdAt,value
2023-04-30T00:02:50.690Z,10.81
2023-04-30T00:07:52.078Z,10.64
2023-04-30T00:12:53.535Z,10.59
2023-04-30T00:17:55.015Z,10.38
2023-04-30T00:22:56.469Z,10.15
2023-04-30T00:27:58.011Z,10.19
2023-04-30T00:32:59.418Z,10.32
2023-04-30T00:38:01.084Z,10.13
2023-04-30T00:43:02.599Z,10.29
2023-04-30T00:48:05.917Z,10.30
2023-04-30T00:53:07.589Z,10.37
2023-04-30T00:58:09.056Z,10.27
2023-04-30T01:03:10.697Z,9.87
2023-04-30T01:08:12.305Z,9.83
2023-04-30T01:13:20.150Z,9.64
2023-04-30T01:18:39.754Z,9.67
2023-04-30T01:24:11.281Z,9.57
2023-04-30T01:29:16.647Z,9.57
2023-04-30T01:34:18.158Z,9.24
2023-04-30T01:39:19.547Z,9.22
2023-04-30T01:44:37.840Z,8.95
2023-04-30T01:49:57.241Z,8.71
2023-04-30T01:55:05.338Z,8.77
2023-04-30T02:00:10.804Z,8.75
2023-04-30T02:05:15.327Z,8.58
2023-04-30T02:10:18.485Z,8.53
2023-04-30T02:15:20.015Z,8.42
2023-04-30T02:20:21.735Z,8.21
2023-04-30T02:25:23.192Z,8.42
2023-04-30T02:30:24.651Z,8.14
2023-04-30T02:35:26.090Z,8.39
2023-04-30T02:40:27.617Z,8.18
2023-04-30T02:45:29.247Z,8.25
2023-04-30T02:50:30.731Z,7.80
2023-04-30T02:55:32.805Z,7.68
2023-04-30T03:00:34.488Z,7.71
2023-04-30T03:05:35.997Z,8.16
2023-04-30T03:10:37.730Z,8.27
2023-04-30T03:15:39.174Z,8.21
2023-04-30T03:20:40.655Z,8.24
2023-04-30T03:25:42.350Z,7.96
2023-04-30T03:30:43.719Z,8.29
2023-04-30T03:35:45.587Z,7.98
2023-04-30T03:40:47.126Z,7.98
2023-04-30T03:45:48.662Z,8.02
2023-04-30T03:50:50.187Z,8.29
2023-04-30T03:55:51.754Z,8.13
2023-04-30T04:00:53.126Z,7.71
2023-04-30T04:05:54.616Z,7.62
2023-04-30T04:10:56.178Z,8.13
2023-04-30T04:15:57.623Z,8.25
2023-04-30T04:20:59.133Z,8.27
2023-04-30T04:26:01.590Z,8.27
2023-04-30T04:31:03.270Z,8.14
2023-04-30T04:36:05.197Z,7.64
2023-04-30T04:41:06.666Z,7.66
2023-04-30T04:46:09.622Z,7.92
2023-04-30T04:51:12.833Z,7.77
2023-04-30T04:56:14.308Z,7.73
2023-04-30T05:01:16.082Z,7.82
2023-04-30T05:06:20.433Z,7.89
2023-04-30T05:11:22.663Z,8.03
2023-04-30T05:16:27.519Z,7.89
2023-04-30T05:21:29.778Z,7.69
2023-04-30T05:26:31.265Z,8.09
2023-04-30T05:31:32.856Z,8.01
2023-04-30T05:36:34.320Z,8.27
2023-04-30T05:41:35.813Z,8.03
2023-04-30T05:46:37.242Z,8.05
2023-04-30T05:51:38.679Z,8.13
2023-04-30T05:56:49.068Z,8.42
2023-04-30T06:02:03.517Z,8.33
2023-04-30T06:07:05.156Z,7.93
2023-04-30T06:12:46.036Z,7.99
2023-04-30T06:17:48.386Z,8.46
2023-04-30T06:22:49.955Z,8.36
2023-04-30T06:27:53.960Z,8.82
2023-04-30T06:32:55.669Z,8.45
2023-04-30T06:37:57.303Z,9.11
2023-04-30T06:43:03.102Z,8.83
2023-04-30T06:48:11.225Z,9.07
2023-04-30T06:53:15.741Z,9.38
2023-04-30T06:58:18.498Z,9.21
2023-04-30T07:03:19.999Z,9.53
2023-04-30T07:08:22.269Z,9.19
2023-04-30T07:13:23.725Z,9.20
2023-04-30T07:18:25.225Z,9.73
2023-04-30T07:23:28.383Z,9.70
2023-04-30T07:28:30.636Z,10.20
2023-04-30T07:33:32.061Z,10.12
2023-04-30T07:38:33.502Z,10.11
2023-04-30T07:43:36.006Z,9.95
2023-04-30T07:48:37.782Z,10.03
2023-04-30T07:53:39.208Z,10.04
2023-04-30T07:58:40.639Z,10.15
2023-04-30T08:03:42.185Z,10.74
2023-04-30T08:08:43.730Z,11.30
2023-04-30T08:13:45.276Z,10.77
2023-04-30T08:18:46.679Z,11.37
2023-04-30T08:23:48.183Z,10.94
2023-04-30T08:28:49.542Z,11.12
2023-04-30T08:33:50.979Z,10.58
2023-04-30T08:38:52.407Z,11.37
2023-04-30T08:43:53.908Z,11.31
2023-04-30T08:48:55.448Z,11.56
2023-04-30T08:53:57.614Z,12.15
2023-04-30T08:58:59.044Z,11.62
2023-04-30T09:04:00.661Z,11.82
2023-04-30T09:09:17.990Z,11.52
2023-04-30T09:14:28.129Z,10.53
2023-04-30T09:19:31.131Z,12.08
2023-04-30T09:24:47.562Z,12.12
2023-04-30T09:29:49.234Z,11.43
2023-04-30T09:34:50.717Z,11.85
2023-04-30T09:39:55.067Z,13.37
2023-04-30T10:20:19.387Z,13.27
2023-04-30T10:25:23.020Z,13.18
2023-04-30T10:37:26.474Z,14.46
2023-04-30T10:42:30.605Z,13.04
2023-04-30T10:47:32.320Z,14.47
2023-04-30T10:52:33.798Z,14.31
2023-04-30T10:57:46.582Z,15.49
2023-04-30T11:02:48.758Z,15.70
2023-04-30T11:07:58.124Z,15.18
2023-04-30T11:13:06.824Z,14.51
2023-04-30T11:18:08.941Z,16.40
2023-04-30T11:23:12.749Z,14.45
2023-04-30T11:28:25.750Z,14.86
2023-04-30T11:33:29.933Z,14.96
2023-04-30T11:38:35.736Z,15.02
2023-04-30T11:43:37.232Z,15.28
2023-04-30T11:48:40.763Z,15.80
2023-04-30T11:53:42.393Z,14.83
2023-04-30T11:58:46.708Z,14.64
2023-04-30T12:03:50.869Z,16.57
2023-04-30T12:08:53.974Z,16.44
2023-04-30T12:14:03.854Z,16.24
2023-04-30T12:19:05.369Z,15.36
2023-04-30T12:24:07.287Z,15.78
2023-04-30T12:29:12.676Z,18.50
2023-04-30T12:34:18.378Z,17.56
2023-04-30T12:39:19.811Z,15.83
2023-04-30T12:44:25.615Z,17.29
2023-04-30T12:49:29.353Z,17.09
2023-04-30T12:54:32.524Z,17.65
2023-04-30T12:59:37.266Z,17.99
2023-04-30T13:04:40.212Z,18.17
2023-04-30T13:09:41.642Z,18.28
2023-04-30T13:14:43.079Z,18.36
2023-04-30T13:19:44.506Z,19.83
2023-04-30T13:24:46.045Z,18.54
2023-04-30T13:29:47.598Z,20.02
2023-04-30T13:34:49.191Z,18.76
2023-04-30T13:39:50.634Z,18.14
2023-04-30T13:44:52.237Z,18.60
2023-04-30T13:49:53.882Z,18.08
2023-04-30T13:54:55.795Z,19.38
2023-04-30T13:59:57.503Z,20.71
2023-04-30T14:05:05.685Z,17.33
2023-04-30T14:10:08.411Z,16.90
2023-04-30T14:15:10.116Z,19.78
2023-04-30T14:20:12.228Z,18.24
2023-04-30T14:25:13.668Z,18.86
2023-04-30T14:30:15.621Z,17.27
2023-04-30T14:35:17.134Z,16.78
2023-04-30T14:40:18.591Z,19.17
2023-04-30T14:45:20.627Z,18.44
2023-04-30T14:50:25.164Z,16.62
2023-04-30T14:55:26.712Z,20.87
2023-04-30T15:00:29.306Z,18.58
2023-04-30T15:05:33.171Z,19.13
2023-04-30T15:10:37.621Z,18.39
2023-04-30T15:15:54.253Z,19.24
2023-04-30T15:21:36.365Z,18.11
2023-04-30T15:26:38.470Z,18.54
2023-04-30T15:31:43.777Z,19.17
2023-04-30T15:36:52.050Z,17.24
2023-04-30T15:42:18.482Z,18.41
2023-04-30T15:47:24.690Z,17.66
2023-04-30T15:52:26.774Z,17.95
2023-04-30T15:57:28.685Z,16.19
2023-04-30T16:02:30.367Z,16.36
2023-04-30T16:07:59.104Z,16.62
2023-04-30T16:13:05.231Z,18.15
2023-04-30T16:18:31.579Z,17.62
2023-04-30T16:23:36.350Z,17.63
2023-04-30T16:28:37.790Z,16.54
2023-04-30T16:33:39.409Z,15.38
2023-04-30T16:38:41.831Z,16.45
2023-04-30T16:43:44.023Z,16.23
2023-04-30T16:48:45.534Z,15.90
2023-04-30T16:53:46.976Z,16.04
2023-04-30T16:58:48.418Z,15.19
2023-04-30T17:03:51.375Z,15.21
2023-04-30T17:08:53.354Z,17.08
2023-04-30T17:13:55.215Z,15.36
2023-04-30T17:18:56.642Z,16.49
2023-04-30T17:23:58.610Z,15.90
2023-04-30T17:29:00.053Z,17.92
2023-04-30T17:34:01.519Z,19.14
2023-04-30T17:39:05.553Z,15.65
2023-04-30T17:44:07.142Z,17.60
2023-04-30T17:49:08.618Z,19.17
2023-04-30T17:54:10.071Z,19.15
2023-04-30T17:59:12.454Z,19.56
2023-04-30T18:04:20.004Z,19.37
2023-04-30T18:09:21.632Z,19.47
2023-04-30T18:14:23.073Z,19.36
2023-04-30T18:19:24.666Z,19.32
2023-04-30T18:24:27.791Z,19.22
2023-04-30T18:29:29.225Z,19.02
2023-04-30T18:34:30.851Z,18.87
2023-04-30T18:39:32.310Z,18.63
2023-04-30T18:44:34.346Z,18.48
2023-04-30T18:49:36.316Z,18.30
2023-04-30T18:54:37.786Z,18.14
2023-04-30T18:59:39.630Z,18.00
2023-04-30T19:04:41.051Z,17.80
2023-04-30T19:09:45.121Z,17.52
2023-04-30T19:14:47.106Z,17.29
2023-04-30T19:19:50.095Z,17.11
2023-04-30T19:24:52.498Z,16.71
2023-04-30T19:29:54.510Z,16.14
2023-04-30T19:34:56.346Z,16.18
2023-04-30T19:39:57.857Z,16.21
2023-04-30T19:44:59.467Z,15.96
2023-04-30T19:50:00.908Z,15.75
2023-04-30T19:55:02.874Z,15.57
2023-04-30T20:00:06.002Z,15.36
2023-04-30T20:05:10.526Z,15.19
2023-04-30T20:10:12.729Z,14.96
2023-04-30T20:15:15.131Z,14.82
2023-04-30T20:20:19.796Z,14.65
2023-04-30T20:25:23.050Z,14.48
2023-04-30T20:30:24.978Z,14.36
2023-04-30T20:35:27.341Z,14.24
2023-04-30T20:40:29.979Z,14.10
2023-04-30T20:45:32.549Z,13.95
2023-04-30T20:50:34.994Z,13.81
2023-04-30T20:55:39.099Z,13.72
2023-04-30T21:00:46.537Z,13.65
2023-04-30T23:59:17.670Z,9.93
